地図

経路データ

SID SEASON NUMBER BASIN SUBBASIN NAME ISO_TIME NATURE LAT LON WMO_WIND WMO_PRES WMO_AGENCY TRACK_TYPE DIST2LAND LANDFALL IFLAG USA_AGENCY USA_ATCF_ID USA_LAT USA_LON USA_RECORD USA_STATUS USA_WIND USA_PRES USA_SSHS USA_R34_NE USA_R34_SE USA_R34_SW USA_R34_NW USA_R50_NE USA_R50_SE USA_R50_SW USA_R50_NW USA_R64_NE USA_R64_SE USA_R64_SW USA_R64_NW USA_POCI USA_ROCI USA_RMW USA_EYE TOKYO_LAT TOKYO_LON TOKYO_GRADE TOKYO_WIND TOKYO_PRES TOKYO_R50_DIR TOKYO_R50_LONG TOKYO_R50_SHORT TOKYO_R30_DIR TOKYO_R30_LONG TOKYO_R30_SHORT TOKYO_LAND CMA_LAT CMA_LON CMA_CAT CMA_WIND CMA_PRES HKO_LAT HKO_LON HKO_CAT HKO_WIND HKO_PRES NEWDELHI_LAT NEWDELHI_LON NEWDELHI_GRADE NEWDELHI_WIND NEWDELHI_PRES NEWDELHI_CI NEWDELHI_DP NEWDELHI_POCI REUNION_LAT REUNION_LON REUNION_TYPE REUNION_WIND REUNION_PRES REUNION_TNUM REUNION_CI REUNION_RMW REUNION_R34_NE REUNION_R34_SE REUNION_R34_SW REUNION_R34_NW REUNION_R50_NE REUNION_R50_SE REUNION_R50_SW REUNION_R50_NW REUNION_R64_NE REUNION_R64_SE REUNION_R64_SW REUNION_R64_NW BOM_LAT BOM_LON BOM_TYPE BOM_WIND BOM_PRES BOM_TNUM BOM_CI BOM_RMW BOM_R34_NE BOM_R34_SE BOM_R34_SW BOM_R34_NW BOM_R50_NE BOM_R50_SE BOM_R50_SW BOM_R50_NW BOM_R64_NE BOM_R64_SE BOM_R64_SW BOM_R64_NW BOM_ROCI BOM_POCI BOM_EYE BOM_POS_METHOD BOM_PRES_METHOD NADI_LAT NADI_LON NADI_CAT NADI_WIND NADI_PRES WELLINGTON_LAT WELLINGTON_LON WELLINGTON_WIND WELLINGTON_PRES DS824_LAT DS824_LON DS824_STAGE DS824_WIND DS824_PRES TD9636_LAT TD9636_LON TD9636_STAGE TD9636_WIND TD9636_PRES TD9635_LAT TD9635_LON TD9635_WIND TD9635_PRES TD9635_ROCI NEUMANN_LAT NEUMANN_LON NEUMANN_CLASS NEUMANN_WIND NEUMANN_PRES MLC_LAT MLC_LON MLC_CLASS MLC_WIND MLC_PRES USA_GUST BOM_GUST BOM_GUST_PER REUNION_GUST REUNION_GUST_PER USA_SEAHGT USA_SEARAD_NE USA_SEARAD_SE USA_SEARAD_SW USA_SEARAD_NW STORM_SPEED STORM_DIR
1887226N14328 1887 32 NA NA NOT_NAMED 1887-08-13 18:00:00 TS 14.0000 -31.8000 main 1542 1542 _____________O -1 14.0000 -31.8000 TS 35 30 289
1887226N14328 1887 32 NA NA NOT_NAMED 1887-08-13 21:00:00 TS 14.4888 -33.2846 main 1700 1700 _____________P -1 14.4888 -33.2846 TS 35 31 289
1887226N14328 1887 32 NA NA NOT_NAMED 1887-08-14 00:00:00 TS 15.0000 -34.8000 main 1860 1860 _____________O -1 15.0000 -34.8000 TS 35 31 290
1887226N14328 1887 32 NA NA NOT_NAMED 1887-08-14 03:00:00 TS 15.5377 -36.3319 main 2020 1990 _____________P -1 15.5377 -36.3319 TS 37 30 290
1887226N14328 1887 32 NA NA NOT_NAMED 1887-08-14 06:00:00 TS 16.0000 -37.7000 main 1981 1923 _____________O -1 16.0000 -37.7000 TS 40 24 288
1887226N14328 1887 32 NA NA NOT_NAMED 1887-08-14 09:00:00 TS 16.2859 -38.7261 main 1923 1870 _____________P -1 16.2859 -38.7261 TS 42 19 285
1887226N14328 1887 32 NA NA NOT_NAMED 1887-08-14 12:00:00 TS 16.5000 -39.6000 main 1870 1821 _____________O -1 16.5000 -39.6000 TS 45 18 285
1887226N14328 1887 32 NA NA NOT_NAMED 1887-08-14 15:00:00 TS 16.7498 -40.5652 main 1814 1783 _____________P -1 16.7498 -40.5652 TS 50 19 285
1887226N14328 1887 32 NA NA NOT_NAMED 1887-08-14 18:00:00 TS 17.0000 -41.5000 main 1779 1746 _____________O -1 17.0000 -41.5000 TS 55 18 286
1887226N14328 1887 32 NA NA NOT_NAMED 1887-08-14 21:00:00 TS 17.2495 -42.3727 main 1740 1715 _____________P -1 17.2495 -42.3727 TS 57 17 287
1887226N14328 1887 32 NA NA NOT_NAMED 1887-08-15 00:00:00 TS 17.5000 -43.2000 main 1715 1689 _____________O -1 17.5000 -43.2000 TS 60 16 288
1887226N14328 1887 32 NA NA NOT_NAMED 1887-08-15 03:00:00 TS 17.7341 -43.9707 main 1683 1667 _____________P -1 17.7341 -43.9707 TS 60 16 288
1887226N14328 1887 32 NA NA NOT_NAMED 1887-08-15 06:00:00 TS 18.0000 -44.8000 main 1665 1642 _____________O -1 18.0000 -44.8000 TS 60 19 289
1887226N14328 1887 32 NA NA NOT_NAMED 1887-08-15 09:00:00 TS 18.3425 -45.8124 main 1642 1629 _____________P -1 18.3425 -45.8124 TS 62 21 289
1887226N14328 1887 32 NA NA NOT_NAMED 1887-08-15 12:00:00 TS 18.7000 -46.9000 main 1631 1613 _____________O -1 18.7000 -46.9000 HU 65 22 288
1887226N14328 1887 32 NA NA NOT_NAMED 1887-08-15 15:00:00 TS 19.0304 -48.0173 main 1613 1599 _____________P -1 19.0304 -48.0173 HU 65 21 287
1887226N14328 1887 32 NA NA NOT_NAMED 1887-08-15 18:00:00 TS 19.3000 -49.0000 main 1602 1563 _____________O -1 19.3000 -49.0000 HU 65 16 286
1887226N14328 1887 32 NA NA NOT_NAMED 1887-08-15 21:00:00 TS 19.4715 -49.6756 main 1561 1527 _____________P -1 19.4715 -49.6756 HU 65 12 285
1887226N14328 1887 32 NA NA NOT_NAMED 1887-08-16 00:00:00 TS 19.6000 -50.2000 main 1527 1494 _____________O -1 19.6000 -50.2000 HU 65 11 285
1887226N14328 1887 32 NA NA NOT_NAMED 1887-08-16 03:00:00 TS 19.7497 -50.7501 main 1486 1463 _____________P -1 19.7497 -50.7501 HU 65 11 286
1887226N14328 1887 32 NA NA NOT_NAMED 1887-08-16 06:00:00 TS 19.9000 -51.3000 main 1463 1426 _____________O -1 19.9000 -51.3000 HU 65 11 286
1887226N14328 1887 32 NA NA NOT_NAMED 1887-08-16 09:00:00 TS 20.0499 -51.9001 main 1426 1389 _____________P -1 20.0499 -51.9001 HU 65 12 285
1887226N14328 1887 32 NA NA NOT_NAMED 1887-08-16 12:00:00 TS 20.2000 -52.5000 main 1389 1338 _____________O -1 20.2000 -52.5000 HU 65 11 286
1887226N14328 1887 32 NA NA NOT_NAMED 1887-08-16 15:00:00 TS 20.3497 -53.0501 main 1328 1279 _____________P -1 20.3497 -53.0501 HU 65 11 286
1887226N14328 1887 32 NA NA NOT_NAMED 1887-08-16 18:00:00 TS 20.5000 -53.6000 main 1279 1219 _____________O -1 20.5000 -53.6000 HU 65 11 286
1887226N14328 1887 32 NA NA NOT_NAMED 1887-08-16 21:00:00 TS 20.6574 -54.2000 main 1221 1162 _____________P -1 20.6574 -54.2000 HU 67 12 285
1887226N14328 1887 32 NA NA NOT_NAMED 1887-08-17 00:00:00 TS 20.8000 -54.8000 main 1162 1113 _____________O -1 20.8000 -54.8000 HU 70 11 283
1887226N14328 1887 32 NA NA NOT_NAMED 1887-08-17 03:00:00 TS 20.8997 -55.3503 main 1103 1056 _____________P -1 20.8997 -55.3503 HU 70 10 281
1887226N14328 1887 32 NA NA NOT_NAMED 1887-08-17 06:00:00 TS 21.0000 -55.9000 main 1056 998 _____________O -1 21.0000 -55.9000 HU 70 11 283
1887226N14328 1887 32 NA NA NOT_NAMED 1887-08-17 09:00:00 TS 21.1499 -56.4999 main 998 946 _____________P -1 21.1499 -56.4999 HU 70 12 285
1887226N14328 1887 32 NA NA NOT_NAMED 1887-08-17 12:00:00 TS 21.3000 -57.1000 main 946 900 _____________O -1 21.3000 -57.1000 HU 70 11 283
1887226N14328 1887 32 NA NA NOT_NAMED 1887-08-17 15:00:00 TS 21.3997 -57.6503 main 891 847 _____________P -1 21.3997 -57.6503 HU 70 10 281
1887226N14328 1887 32 NA NA NOT_NAMED 1887-08-17 18:00:00 TS 21.5000 -58.2000 main 847 795 _____________O -1 21.5000 -58.2000 HU 70 11 283
1887226N14328 1887 32 NA NA NOT_NAMED 1887-08-17 21:00:00 TS 21.6499 -58.7999 main 795 750 _____________P -1 21.6499 -58.7999 HU 70 12 285
1887226N14328 1887 32 NA NA NOT_NAMED 1887-08-18 00:00:00 TS 21.8000 -59.4000 main 750 712 _____________O -1 21.8000 -59.4000 HU 70 11 283
1887226N14328 1887 32 NA NA NOT_NAMED 1887-08-18 03:00:00 TS 21.8997 -59.9503 main 703 611 _____________P -1 21.8997 -59.9503 HU 70 14 217
1887226N14328 1887 32 NA NA NOT_NAMED 1887-08-18 06:00:00 TS 20.6667 -60.3333 35 hurdat_atl main 611 546 O____________O hurdat_atl AL071887 18.0000 -60.0000 TS 35 0 22.0000 -60.5000 HU 70 18 206
1887226N14328 1887 32 NA NA NOT_NAMED 1887-08-18 09:00:00 TS 20.2751 -60.8022 main 546 494 P____________P AL071887 18.4003 -60.5045 TS 35 0 22.1499 -61.0999 HU 70 10 242
1887226N14328 1887 32 NA NA NOT_NAMED 1887-08-18 12:00:00 TS 20.2000 -61.2800 35 hurdat_atl main 494 456 O____________O hurdat_atl AL071887 18.8000 -61.0000 TS 35 0 22.3000 -61.7000 HU 70 9 269
1887226N14328 1887 32 NA NA NOT_NAMED 1887-08-18 15:00:00 TS 20.2639 -61.7404 main 461 426 P____________P AL071887 19.1997 -61.4854 TS 35 0 22.3922 -62.2504 HU 70 10 292
1887226N14328 1887 32 NA NA NOT_NAMED 1887-08-18 18:00:00 TS 20.5667 -62.2667 35 hurdat_atl main 424 397 O____________O hurdat_atl AL071887 19.6000 -62.0000 TS 35 0 22.5000 -62.8000 HU 70 12 301
1887226N14328 1887 32 NA NA NOT_NAMED 1887-08-18 21:00:00 TS 20.8949 -62.8518 main 397 386 P____________P AL071887 19.9999 -62.5778 TS 37 0 22.6849 -63.3999 HU 72 13 301
1887226N14328 1887 32 NA NA NOT_NAMED 1887-08-19 00:00:00 TS 21.2333 -63.4667 40 hurdat_atl main 382 380 O____________O hurdat_atl AL071887 20.4000 -63.2000 TS 40 0 22.9000 -64.0000 HU 75 13 301
1887226N14328 1887 32 NA NA NOT_NAMED 1887-08-19 03:00:00 TS 21.5663 -64.0687 main 390 386 P____________P AL071887 20.7997 -63.8279 TS 42 0 23.0996 -64.5502 HU 75 13 300
1887226N14328 1887 32 NA NA NOT_NAMED 1887-08-19 06:00:00 TS 21.9000 -64.7000 45 hurdat_atl main 402 400 O____________O hurdat_atl AL071887 21.2000 -64.5000 TS 45 0 23.3000 -65.1000 HU 75 14 299
1887226N14328 1887 32 NA NA NOT_NAMED 1887-08-19 09:00:00 TS 22.2357 -65.3902 main 425 425 P____________P AL071887 21.5999 -65.2353 TS 47 0 23.5074 -65.7000 HU 75 15 297
1887226N14328 1887 32 NA NA NOT_NAMED 1887-08-19 12:00:00 TS 22.5667 -66.1000 50 hurdat_atl main 469 469 O____________O hurdat_atl AL071887 22.0000 -66.0000 TS 50 0 23.7000 -66.3000 HU 75 14 297
1887226N14328 1887 32 NA NA NOT_NAMED 1887-08-19 15:00:00 TS 22.8880 -66.7837 main 478 468 P____________P AL071887 22.3997 -66.7504 TS 50 0 23.8646 -66.8502 HU 75 14 297
1887226N14328 1887 32 NA NA NOT_NAMED 1887-08-19 18:00:00 TS 23.2000 -67.4667 50 hurdat_atl main 474 472 O____________O hurdat_atl AL071887 22.8000 -67.5000 TS 50 0 24.0000 -67.4000 HU 75 14 296
1887226N14328 1887 32 NA NA NOT_NAMED 1887-08-19 21:00:00 TS 23.5072 -68.1669 main 474 473 P____________P AL071887 23.2071 -68.2503 TS 52 0 24.1074 -68.0002 HU 75 14 295
1887226N14328 1887 32 NA NA NOT_NAMED 1887-08-20 00:00:00 TS 23.8000 -68.8667 55 hurdat_atl main 480 476 O____________O hurdat_atl AL071887 23.6000 -69.0000 TS 55 0 24.2000 -68.6000 HU 75 14 294
1887226N14328 1887 32 NA NA NOT_NAMED 1887-08-20 03:00:00 TS 24.0713 -69.5504 main 476 449 P____________P AL071887 23.9571 -69.7505 TS 55 0 24.2996 -69.1501 HU 77 14 293
1887226N14328 1887 32 NA NA NOT_NAMED 1887-08-20 06:00:00 TS 24.3333 -70.2333 55 hurdat_atl main 449 432 O____________O hurdat_atl AL071887 24.3000 -70.5000 TS 55 0 24.4000 -69.7000 HU 80 14 293
1887226N14328 1887 32 NA NA NOT_NAMED 1887-08-20 09:00:00 TS 24.6099 -70.9434 main 436 427 P____________P AL071887 24.6648 -71.2650 TS 57 0 24.4999 -70.3001 HU 80 14 293
1887226N14328 1887 32 NA NA NOT_NAMED 1887-08-20 12:00:00 TS 24.8667 -71.6333 60 hurdat_atl main 437 428 O____________O hurdat_atl AL071887 25.0000 -72.0000 TS 60 0 24.6000 -70.9000 HU 80 13 291
1887226N14328 1887 32 NA NA NOT_NAMED 1887-08-20 15:00:00 TS 25.0763 -72.2704 main 441 438 P____________P AL071887 25.2722 -72.6804 TS 60 0 24.6846 -71.4503 HU 80 12 290
1887226N14328 1887 32 NA NA NOT_NAMED 1887-08-20 18:00:00 TS 25.2667 -72.8667 60 hurdat_atl main 458 444 O____________O hurdat_atl AL071887 25.5000 -73.3000 TS 60 0 24.8000 -72.0000 HU 80 11 291
1887226N14328 1887 32 NA NA NOT_NAMED 1887-08-20 21:00:00 TS 25.4765 -73.4534 main 437 395 P____________P AL071887 25.7223 -73.8801 TS 62 0 24.9849 -72.5999 HU 80 11 291
1887226N14328 1887 32 NA NA NOT_NAMED 1887-08-21 00:00:00 TS 25.6667 -74.0000 65 hurdat_atl main 395 353 O____________O hurdat_atl AL071887 25.9000 -74.4000 HU 65 1 25.2000 -73.2000 HU 80 10 289
1887226N14328 1887 32 NA NA NOT_NAMED 1887-08-21 03:00:00 TS 25.8098 -74.5036 main 353 320 P____________P AL071887 26.0148 -74.8803 HU 70 1 25.3996 -73.7503 HU 90 9 287
1887226N14328 1887 32 NA NA NOT_NAMED 1887-08-21 06:00:00 TS 25.9333 -74.9667 75 hurdat_atl main 311 283 O____________O hurdat_atl AL071887 26.1000 -75.3000 HU 75 1 25.6000 -74.3000 MH 100 9 288
1887226N14328 1887 32 NA NA NOT_NAMED 1887-08-21 09:00:00 TS 26.0740 -75.4150 main 283 252 P____________P AL071887 26.2073 -75.6725 HU 80 1 25.8074 -74.9000 MH 100 8 289
1887226N14328 1887 32 NA NA NOT_NAMED 1887-08-21 12:00:00 TS 26.2000 -75.8333 85 hurdat_atl main 252 224 O____________O hurdat_atl AL071887 26.3000 -76.0000 HU 85 2 26.0000 -75.5000 MH 100 8 286
1887226N14328 1887 32 NA NA NOT_NAMED 1887-08-21 15:00:00 TS 26.2908 -76.2393 main 224 201 P____________P AL071887 26.3574 -76.3076 HU 90 2 26.1576 -76.1026 MH 102 7 284
1887226N14328 1887 32 NA NA NOT_NAMED 1887-08-21 18:00:00 TS 26.3667 -76.6000 95 hurdat_atl main 201 182 O____________O hurdat_atl AL071887 26.4000 -76.6000 HU 95 2 26.3000 -76.6000 MH 105 6 285
1887226N14328 1887 32 NA NA NOT_NAMED 1887-08-21 21:00:00 TS 26.4498 -76.8984 main 182 175 P____________P AL071887 26.4499 -76.9000 HU 100 3 26.4496 -76.8952 MH 107 5 288
1887226N14328 1887 32 NA NA NOT_NAMED 1887-08-22 00:00:00 TS 26.5333 -77.1667 105 hurdat_atl main 175 175 O____________O hurdat_atl AL071887 26.5000 -77.2000 HU 105 3 26.6000 -77.1000 MH 110 5 287
1887226N14328 1887 32 NA NA NOT_NAMED 1887-08-22 03:00:00 TS 26.6016 -77.4526 main 174 172 P____________P AL071887 26.5275 -77.5077 HU 107 3 26.7499 -77.3426 MH 110 5 288
1887226N14328 1887 32 NA NA NOT_NAMED 1887-08-22 06:00:00 TS 26.7000 -77.7333 110 hurdat_atl main 181 179 O____________O hurdat_atl AL071887 26.6000 -77.8000 HU 110 3 26.9000 -77.6000 MH 110 6 296
1887226N14328 1887 32 NA NA NOT_NAMED 1887-08-22 09:00:00 TS 26.8484 -78.0200 main 189 171 P____________P AL071887 26.7475 -78.0725 HU 110 3 27.0501 -77.9150 MH 110 6 308
1887226N14328 1887 32 NA NA NOT_NAMED 1887-08-22 12:00:00 TS 27.0667 -78.2667 110 hurdat_atl main 171 164 O____________O hurdat_atl AL071887 27.0000 -78.3000 HU 110 3 27.2000 -78.2000 MH 110 6 324
1887226N14328 1887 32 NA NA NOT_NAMED 1887-08-22 15:00:00 TS 27.3633 -78.4491 main 171 162 P____________P AL071887 27.3700 -78.4799 HU 110 3 27.3499 -78.3876 MH 110 7 337
1887226N14328 1887 32 NA NA NOT_NAMED 1887-08-22 18:00:00 TS 27.7000 -78.5667 110 hurdat_atl main 167 167 O____________O hurdat_atl AL071887 27.8000 -78.6000 HU 110 3 27.5000 -78.5000 MH 110 7 345
1887226N14328 1887 32 NA NA NOT_NAMED 1887-08-22 21:00:00 TS 28.0216 -78.6417 main 180 175 P____________P AL071887 28.2075 -78.6800 HU 110 3 27.6500 -78.5651 MH 110 6 352
1887226N14328 1887 32 NA NA NOT_NAMED 1887-08-23 00:00:00 TS 28.3333 -78.6667 110 hurdat_atl main 177 175 O____________O hurdat_atl AL071887 28.6000 -78.7000 HU 110 3 27.8000 -78.6000 MH 110 6 0
1887226N14328 1887 32 NA NA NOT_NAMED 1887-08-23 03:00:00 TS 28.6167 -78.6626 main 175 175 P____________P AL071887 28.9575 -78.6651 HU 110 3 27.9350 -78.6575 MH 110 6 4
1887226N14328 1887 32 NA NA NOT_NAMED 1887-08-23 06:00:00 TS 28.9000 -78.6333 110 hurdat_atl main 190 190 O____________O hurdat_atl AL071887 29.3000 -78.6000 HU 110 3 28.1000 -78.7000 MH 110 6 5
1887226N14328 1887 32 NA NA NOT_NAMED 1887-08-23 09:00:00 TS 29.2142 -78.6050 main 200 200 P____________P AL071887 29.6500 -78.5500 HU 110 3 28.3425 -78.7150 MH 110 6 5
1887226N14328 1887 32 NA NA NOT_NAMED 1887-08-23 12:00:00 TS 29.5333 -78.5667 110 hurdat_atl main 215 215 O____________O hurdat_atl AL071887 30.0000 -78.5000 HU 110 3 28.6000 -78.7000 MH 110 6 6
1887226N14328 1887 32 NA NA NOT_NAMED 1887-08-23 15:00:00 TS 29.8333 -78.5315 main 242 242 P____________P AL071887 30.3500 -78.4574 HU 110 3 28.7999 -78.6799 MH 110 6 8
1887226N14328 1887 32 NA NA NOT_NAMED 1887-08-23 18:00:00 TS 30.1333 -78.4667 110 hurdat_atl main 257 257 O____________O hurdat_atl AL071887 30.7000 -78.4000 HU 110 3 29.0000 -78.6000 MH 110 945 7 15
1887226N14328 1887 32 NA NA NOT_NAMED 1887-08-23 21:00:00 TS 30.4625 -78.3434 main 284 263 P____________P AL071887 31.0725 -78.3076 HU 110 3 29.2426 -78.4151 MH 110 947 7 20
1887226N14328 1887 32 NA NA NOT_NAMED 1887-08-24 00:00:00 TS 30.7667 -78.2000 110 hurdat_atl main 263 252 O____________I hurdat_atl AL071887 31.4000 -78.2000 HU 110 3 29.5000 -78.2000 MH 110 950 6 23
1887226N14328 1887 32 NA NA NOT_NAMED 1887-08-24 03:00:00 TS 30.9958 -78.0882 main 252 240 P____________P AL071887 31.6150 -78.1073 HU 110 3 29.7574 -78.0499 MH 110 952 5 25
1887226N14328 1887 32 NA NA NOT_NAMED 1887-08-24 06:00:00 TS 31.2000 -77.9667 110 hurdat_atl main 240 227 O____________O hurdat_atl AL071887 31.8000 -78.0000 HU 110 3 30.0000 -77.9000 MH 110 955 5 27
1887226N14328 1887 32 NA NA NOT_NAMED 1887-08-24 09:00:00 TS 31.4031 -77.8443 main 233 223 P____________P AL071887 32.0047 -77.9091 HU 110 3 30.2000 -77.7148 MH 110 5 31
1887226N14328 1887 32 NA NA NOT_NAMED 1887-08-24 12:00:00 TS 31.6667 -77.6333 110 hurdat_atl main 222 215 O____________O hurdat_atl AL071887 32.3000 -77.7000 HU 110 3 30.4000 -77.5000 MH 110 8 37
1887226N14328 1887 32 NA NA NOT_NAMED 1887-08-24 15:00:00 TS 32.0610 -77.2571 main 211 191 P____________P AL071887 32.7702 -77.2606 HU 110 3 30.6425 -77.2500 MH 110 11 40
1887226N14328 1887 32 NA NA NOT_NAMED 1887-08-24 18:00:00 TS 32.5000 -76.8000 110 hurdat_atl main 191 185 O____________O hurdat_atl AL071887 33.3000 -76.7000 HU 110 3 30.9000 -77.0000 MH 110 11 42
1887226N14328 1887 32 NA NA NOT_NAMED 1887-08-24 21:00:00 TS 32.8527 -76.4124 main 185 171 P____________P AL071887 33.7647 -76.1644 HU 110 3 31.0287 -76.9083 MH 110 11 44
1887226N14328 1887 32 NA NA NOT_NAMED 1887-08-25 00:00:00 TS 33.2667 -75.9333 110 hurdat_atl main 165 144 O____________O hurdat_atl AL071887 34.2000 -75.6000 HU 110 3 31.4000 -76.6000 MH 110 14 44
1887226N14328 1887 32 NA NA NOT_NAMED 1887-08-25 03:00:00 TS 33.8536 -75.2480 main 148 148 P____________P AL071887 34.6149 -74.9996 HU 110 3 32.3309 -75.7448 MH 110 17 45
1887226N14328 1887 32 NA NA NOT_NAMED 1887-08-25 06:00:00 TS 34.5000 -74.4667 110 hurdat_atl main 164 161 O____________O hurdat_atl AL071887 35.0000 -74.4000 HU 110 3 33.5000 -74.6000 MH 110 17 45
1887226N14328 1887 32 NA NA NOT_NAMED 1887-08-25 09:00:00 TS 35.0921 -73.7628 main 172 172 P____________P AL071887 35.3335 -73.9076 HU 110 3 34.6095 -73.4731 MH 110 17 46
1887226N14328 1887 32 NA NA NOT_NAMED 1887-08-25 12:00:00 TS 35.6667 -72.9667 110 hurdat_atl main 225 225 O____________O hurdat_atl AL071887 35.7000 -73.3000 HU 110 3 35.6000 -72.3000 MH 110 972 18 52
1887226N14328 1887 32 NA NA NOT_NAMED 1887-08-25 15:00:00 TS 36.2112 -71.9772 main 317 317 P____________P AL071887 36.1627 -72.3820 HU 110 3 36.3081 -71.1675 MH 107 20 57
1887226N14328 1887 32 NA NA NOT_NAMED 1887-08-25 18:00:00 TS 36.7667 -70.8667 110 hurdat_atl main 405 405 O____________O hurdat_atl AL071887 36.7000 -71.3000 HU 110 3 36.9000 -70.0000 MH 105 21 57
1887226N14328 1887 32 NA NA NOT_NAMED 1887-08-25 21:00:00 TS 37.3790 -69.7557 main 448 428 P____________P AL071887 37.2906 -70.2584 HU 107 3 37.5558 -68.7504 MH 105 22 56
1887226N14328 1887 32 NA NA NOT_NAMED 1887-08-26 00:00:00 TS 38.0000 -68.5333 105 hurdat_atl main 431 418 O____________O hurdat_atl AL071887 37.9000 -69.1000 HU 105 3 38.2000 -67.4000 MH 105 24 60
1887226N14328 1887 32 NA NA NOT_NAMED 1887-08-26 03:00:00 TS 38.5645 -67.1179 main 423 423 P____________P AL071887 38.4661 -67.7073 HU 105 3 38.7612 -65.9392 MH 102 25 63
1887226N14328 1887 32 NA NA NOT_NAMED 1887-08-26 06:00:00 TS 39.1333 -65.6667 105 hurdat_atl main 464 427 O____________O hurdat_atl AL071887 39.0000 -66.3000 HU 105 3 39.4000 -64.4000 MH 100 24 62
1887226N14328 1887 32 NA NA NOT_NAMED 1887-08-26 09:00:00 TS 39.6887 -64.4319 main 429 385 P____________P AL071887 39.4266 -65.2067 HU 102 3 40.2129 -62.8823 MH 100 24 58
1887226N14328 1887 32 NA NA NOT_NAMED 1887-08-26 12:00:00 TS 40.4000 -63.0667 100 hurdat_atl main 389 384 O____________O hurdat_atl AL071887 40.0000 -64.0000 HU 100 3 41.2000 -61.2000 MH 100 29 55
1887226N14328 1887 32 NA NA NOT_NAMED 1887-08-26 15:00:00 TS 41.3745 -61.2642 main 382 339 P____________P AL071887 40.9022 -62.2984 HU 100 3 42.3191 -59.1959 MH 97 36 54
1887226N14328 1887 32 NA NA NOT_NAMED 1887-08-26 18:00:00 TS 42.5000 -59.2000 100 hurdat_atl main 336 328 O____________O hurdat_atl AL071887 42.0000 -60.3000 HU 100 3 43.5000 -57.0000 HU 95 962 38 54
1887226N14328 1887 32 NA NA NOT_NAMED 1887-08-26 21:00:00 TS 43.6486 -57.0548 main 339 237 P____________P AL071887 43.1473 -58.2149 HU 97 3 44.6513 -54.7344 HU 90 963 39 54
1887226N14328 1887 32 NA NA NOT_NAMED 1887-08-27 00:00:00 TS 44.7667 -54.8333 95 hurdat_atl main 220 104 O____________O hurdat_atl AL071887 44.3000 -56.0000 HU 95 2 45.7000 -52.5000 HU 85 965 37 56
1887226N14328 1887 32 NA NA NOT_NAMED 1887-08-27 03:00:00 TS 45.7129 -52.6734 main 107 100 P____________P AL071887 45.3007 -53.7672 HU 90 2 46.5373 -50.4858 HU 80 36 59
1887226N14328 1887 32 NA NA NOT_NAMED 1887-08-27 06:00:00 TS 46.6333 -50.4333 85 hurdat_atl main 193 193 O____________O hurdat_atl AL071887 46.3000 -51.4000 HU 85 2 47.3000 -48.5000 HU 75 37 59
1887226N14328 1887 32 NA NA NOT_NAMED 1887-08-27 09:00:00 TS 47.6232 -47.9724 main 343 343 P____________P AL071887 47.3784 -48.8165 HU 80 1 48.1128 -46.2841 HU 70 40 60
1887226N14328 1887 32 NA NA NOT_NAMED 1887-08-27 12:00:00 ET 48.6333 -45.3333 75 hurdat_atl main 553 553 O____________O hurdat_atl AL071887 48.5000 -46.0000 EX 75 -4 48.9000 -44.0000 EX 65 41 61
1887226N14328 1887 32 NA NA NOT_NAMED 1887-08-27 15:00:00 ET 49.6248 -42.5499 main 767 767 P____________P AL071887 49.6235 -42.9507 EX 70 -4 49.6272 -41.7482 EX 62 42 62
1887226N14328 1887 32 NA NA NOT_NAMED 1887-08-27 18:00:00 ET 50.5667 -39.6333 65 hurdat_atl main 988 O____________O hurdat_atl AL071887 50.7000 -39.7000 EX 65 -4 50.3000 -39.5000 EX 60 42 63

IBTrACS Databaseについて

本データベースは、米国NOAAが公開する1842年以降の世界の熱帯低気圧のベストトラックデータアーカイブInternational Best Track Archive for Climate Stewardship (IBTrACS)を、ウェブで閲覧しやすい形式に変換したものです。

最終更新日:2021-10-19